ADDS METAR Data INFO
IDs: Format: Raw Decoded Include TAF

Data at: 0730 UTC 18 Oct 2017

KDMN 180653Z AUTO 31006KT 10SM CLR 16/06 A3016 RMK AO2 SLP148 T01610061 402830083
KDMN 180553Z AUTO 32004KT 10SM CLR 17/06 A3017 RMK AO2 SLP152 T01670061 10267 20161 50001
KDMN 180453Z AUTO 02004KT 10SM CLR 17/06 A3017 RMK AO2 SLP156 T01670056
KDMN 180353Z AUTO 00000KT 10SM CLR 18/06 A3016 RMK AO2 SLP156 T01780056
KDMN 180253Z AUTO 14004KT 10SM CLR 19/07 A3016 RMK AO2 SLP156 T01940067 53005
KDMN 180153Z AUTO 18004KT 10SM CLR 22/07 A3016 RMK AO2 SLP158 T02170072
KDMN 180053Z AUTO 19004KT 10SM CLR 24/07 A3015 RMK AO2 SLP156 T02390072
KDMN 172353Z AUTO 19005KT 10SM CLR 27/07 A3014 RMK AO2 SLP152 T02670072 10283 20244 56012
KDMN 172253Z AUTO 19005KT 10SM CLR 27/07 A3015 RMK AO2 SLP154 T02720067
KDMN 172153Z AUTO 00000KT 10SM CLR 28/07 A3017 RMK AO2 SLP156 T02780072
KDMN 172053Z AUTO 10SM CLR 28/07 A3018 RMK AO2 SLP161 T02780067 56031
KDMN 171953Z AUTO 21005KT 10SM CLR 27/06 A3021 RMK AO2 SLP169 T02670061
KDMN 171853Z AUTO 13004KT 10SM CLR 26/07 A3025 RMK AO2 SLP184 T02610067
KDMN 171753Z AUTO 07005KT 10SM CLR 24/06 A3029 RMK AO2 SLP198 T02440061 10244 20083 58007
KDMN 171653Z AUTO 08005KT 10SM CLR 22/05 A3030 RMK AO2 SLP206 T02170050
KDMN 171553Z AUTO 08004KT 10SM CLR 20/04 A3032 RMK AO2 SLP211 T02000044
KDMN 171453Z AUTO 08004KT 10SM CLR 17/04 A3031 RMK AO2 SLP214 T01670039 53008
KDMN 171353Z AUTO 04003KT 10SM CLR 12/03 A3030 RMK AO2 SLP212 T01220033
KDMN 171253Z AUTO 04006KT 10SM CLR 09/03 A3028 RMK AO2 SLP207 T00940028
KDMN 171153Z AUTO 06003KT 10SM CLR 08/03 A3029 RMK AO2 SLP205 T00830028 10144 20083 55006
KDMN 171053Z AUTO 01003KT 10SM CLR 09/03 A3028 RMK AO2 SLP201 T00940028
KDMN 170953Z AUTO 33004KT 10SM CLR 11/03 A3028 RMK AO2 SLP201 T01060028
KDMN 170853Z AUTO 00000KT 10SM CLR 11/03 A3031 RMK AO2 SLP208 T01110028 58004
KDMN 170753Z AUTO 03004KT 10SM CLR 13/04 A3031 RMK AO2 SLP209 T01330039
KDMN 170653Z AUTO 04007KT 10SM CLR 14/04 A3031 RMK AO2 SLP209 T01390044 402500078
KDMN 170553Z AUTO 03005KT 10SM CLR 14/05 A3032 RMK AO2 SLP213 T01440050 10244 20144 50002
KDMN 170453Z AUTO 04007KT 10SM CLR 15/05 A3033 RMK AO2 SLP217 T01500050
KDMN 170353Z AUTO 08009KT 10SM CLR 16/05 A3032 RMK AO2 SLP216 T01610050
KDMN 170253Z AUTO 05007KT 10SM CLR 17/05 A3031 RMK AO2 SLP219 T01670050 51008
KDMN 170153Z AUTO 05005KT 10SM CLR 19/05 A3030 RMK AO2 SLP218 T01890050
KDMN 170053Z AUTO 10004KT 10SM CLR 22/06 A3029 RMK AO2 SLP213 T02170056
KDMN 162353Z AUTO 10008KT 10SM CLR 24/06 A3028 RMK AO2 SLP202 T02440056 10250 20206 56011
KDMN 162253Z AUTO 08008KT 10SM CLR 25/05 A3029 RMK AO2 SLP203 T02500050
KDMN 162153Z AUTO 11006KT 10SM CLR 24/05 A3030 RMK AO2 SLP208 T02440050
KDMN 162053Z AUTO 08011KT 10SM CLR 24/05 A3032 RMK AO2 SLP214 T02440050 58033
KDMN 161953Z AUTO 09013G18KT 10SM CLR 23/04 A3036 RMK AO2 SLP227 T02330039